createdAt,value
2023-01-10T00:00:57.260Z,97763.13
2023-01-10T00:03:28.264Z,97767.38
2023-01-10T00:05:55.496Z,97762.22
2023-01-10T00:08:22.460Z,97765.88
2023-01-10T00:10:49.807Z,97774.84
2023-01-10T00:13:24.078Z,97767.00
2023-01-10T00:15:52.999Z,97764.38
2023-01-10T00:18:20.946Z,97773.91
2023-01-10T00:20:49.657Z,97770.47
2023-01-10T00:23:20.189Z,97776.47
2023-01-10T00:25:47.550Z,97769.47
2023-01-10T00:28:20.535Z,97778.88
2023-01-10T00:31:01.229Z,97784.31
2023-01-10T00:33:32.012Z,97786.03
2023-01-10T00:36:00.631Z,97781.75
2023-01-10T00:38:28.431Z,97783.53
2023-01-10T00:40:55.698Z,97779.22
2023-01-10T00:43:41.292Z,97782.75
2023-01-10T00:46:09.403Z,97785.50
2023-01-10T00:48:36.581Z,97777.72
2023-01-10T00:51:04.431Z,97781.19
2023-01-10T00:53:31.560Z,97775.09
2023-01-10T00:55:58.692Z,97775.06
2023-01-10T00:58:25.677Z,97781.97
2023-01-10T01:00:53.025Z,97784.53
2023-01-10T01:03:21.996Z,97787.06
2023-01-10T01:05:49.317Z,97791.53
2023-01-10T01:08:18.192Z,97787.97
2023-01-10T01:10:45.895Z,97791.84
2023-01-10T01:13:18.962Z,97794.41
2023-01-10T01:15:46.825Z,97792.75
2023-01-10T01:18:21.099Z,97782.38
2023-01-10T01:20:52.713Z,97786.75
2023-01-10T01:23:19.817Z,97784.97
2023-01-10T01:25:53.931Z,97783.28
2023-01-10T01:28:22.025Z,97779.06
2023-01-10T01:30:49.898Z,97779.94
2023-01-10T01:33:17.859Z,97777.38
2023-01-10T01:35:47.126Z,97780.16
2023-01-10T01:38:15.038Z,97776.75
2023-01-10T01:40:42.388Z,97771.72
2023-01-10T01:43:26.987Z,97773.63
2023-01-10T01:45:55.836Z,97775.38
2023-01-10T01:48:42.881Z,97781.72
2023-01-10T01:51:17.480Z,97786.03
2023-01-10T01:53:51.054Z,97773.09
2023-01-10T01:56:25.978Z,97771.31
2023-01-10T01:58:59.660Z,97781.78
2023-01-10T02:01:28.777Z,97781.72
2023-01-10T02:04:03.574Z,97780.00
2023-01-10T02:06:30.893Z,97778.19
2023-01-10T02:09:16.243Z,97784.38
2023-01-10T02:11:43.494Z,97775.72
2023-01-10T02:14:12.178Z,97782.75
2023-01-10T02:16:39.424Z,97780.19
2023-01-10T02:19:23.114Z,97786.22
2023-01-10T02:22:08.473Z,97787.94
2023-01-10T02:24:48.436Z,97783.59
2023-01-10T02:27:53.572Z,97786.34
2023-01-10T02:30:35.528Z,97785.44
2023-01-10T02:33:30.823Z,97789.06
2023-01-10T02:36:26.788Z,97801.38
2023-01-10T02:39:06.356Z,97792.81
2023-01-10T02:41:54.507Z,97792.06
2023-01-10T02:44:46.037Z,97792.06
2023-01-10T02:47:14.565Z,97792.94
2023-01-10T02:49:50.176Z,97795.56
2023-01-10T02:52:25.497Z,97791.09
2023-01-10T02:54:58.800Z,97798.81
2023-01-10T02:57:48.705Z,97802.28
2023-01-10T03:00:33.993Z,97797.78
2023-01-10T03:03:14.694Z,97808.09
2023-01-10T03:05:47.854Z,97801.97
2023-01-10T03:08:30.663Z,97801.88
2023-01-10T03:11:03.857Z,97801.84
2023-01-10T03:13:39.555Z,97800.00
2023-01-10T03:16:09.863Z,97795.56
2023-01-10T03:19:01.974Z,97806.03
2023-01-10T03:21:31.699Z,97797.31
2023-01-10T03:24:08.143Z,97799.94
2023-01-10T03:27:07.574Z,97798.25
2023-01-10T03:29:44.469Z,97798.25
2023-01-10T03:32:15.486Z,97801.78
2023-01-10T03:34:42.530Z,97805.34
2023-01-10T03:37:15.879Z,97802.13
2023-01-10T03:40:15.145Z,97802.47
2023-01-10T03:43:28.521Z,97802.53
2023-01-10T03:46:02.672Z,97809.47
2023-01-10T03:48:36.642Z,97807.81
2023-01-10T03:51:06.594Z,97805.91
2023-01-10T03:53:37.351Z,97812.88
2023-01-10T03:56:04.549Z,97818.09
2023-01-10T03:58:31.816Z,97823.19
2023-01-10T04:00:58.835Z,97828.34
2023-01-10T04:03:26.104Z,97834.38
2023-01-10T04:05:52.976Z,97833.34
2023-01-10T04:08:20.133Z,97842.06
2023-01-10T04:10:49.606Z,97840.47
2023-01-10T04:13:17.047Z,97846.81
2023-01-10T04:15:43.904Z,97854.66
2023-01-10T04:18:11.121Z,97863.38
2023-01-10T04:20:37.998Z,97858.31
2023-01-10T04:23:05.302Z,97852.22
2023-01-10T04:25:32.475Z,97858.34
2023-01-10T04:27:59.652Z,97848.03
2023-01-10T04:30:27.403Z,97862.78
2023-01-10T04:32:54.542Z,97854.94
2023-01-10T04:35:21.429Z,97861.88
2023-01-10T04:37:48.572Z,97858.34
2023-01-10T04:40:19.488Z,97861.88
2023-01-10T04:42:46.907Z,97862.72
2023-01-10T04:45:17.809Z,97859.19
2023-01-10T04:47:49.820Z,97860.97
2023-01-10T04:50:16.891Z,97860.06
2023-01-10T04:52:44.144Z,97862.59
2023-01-10T04:55:11.120Z,97871.31
2023-01-10T04:57:38.576Z,97867.78
2023-01-10T05:00:06.064Z,97875.59
2023-01-10T05:02:33.822Z,97873.00
2023-01-10T05:05:01.068Z,97872.16
2023-01-10T05:07:28.251Z,97878.16
2023-01-10T05:09:55.136Z,97872.88
2023-01-10T05:12:22.345Z,97876.34
2023-01-10T05:14:49.337Z,97875.44
2023-01-10T05:17:16.487Z,97877.25
2023-01-10T05:19:43.336Z,97876.41
2023-01-10T05:22:10.516Z,97875.47
2023-01-10T05:24:37.433Z,97876.28
2023-01-10T05:27:04.654Z,97877.06
2023-01-10T05:29:33.381Z,97885.69
2023-01-10T05:32:00.867Z,97885.63
2023-01-10T05:34:28.018Z,97892.69
2023-01-10T05:36:55.418Z,97890.13
2023-01-10T05:39:22.409Z,97898.81
2023-01-10T05:41:49.712Z,97895.44
2023-01-10T05:44:16.566Z,97906.78
2023-01-10T05:46:44.212Z,97910.31
2023-01-10T05:49:11.212Z,97915.59
2023-01-10T05:51:38.497Z,97917.28
2023-01-10T05:54:05.839Z,97919.97
2023-01-10T05:56:33.070Z,97918.25
2023-01-10T05:59:06.607Z,97921.66
2023-01-10T06:01:38.909Z,97923.44
2023-01-10T06:04:05.752Z,97928.66
2023-01-10T06:06:34.433Z,97932.09
2023-01-10T06:09:01.474Z,97932.94
2023-01-10T06:11:31.732Z,97938.97
2023-01-10T06:13:58.791Z,97940.59
2023-01-10T06:16:26.025Z,97940.56
2023-01-10T06:18:52.948Z,97947.50
2023-01-10T06:21:20.443Z,97946.56
2023-01-10T06:23:47.343Z,97938.00
2023-01-10T06:26:14.699Z,97950.31
2023-01-10T06:28:41.538Z,97952.03
2023-01-10T06:31:08.879Z,97952.91
2023-01-10T06:33:36.416Z,97956.38
2023-01-10T06:36:04.405Z,97957.34
2023-01-10T06:38:31.355Z,97959.06
2023-01-10T06:40:58.510Z,97965.19
2023-01-10T06:43:26.056Z,97972.94
2023-01-10T06:45:53.378Z,97972.94
2023-01-10T06:48:20.854Z,97978.25
2023-01-10T06:50:50.133Z,97982.59
2023-01-10T06:53:17.071Z,97983.50
2023-01-10T06:55:44.436Z,97990.38
2023-01-10T06:58:11.381Z,97985.19
2023-01-10T07:00:38.871Z,97985.19
2023-01-10T07:03:06.021Z,97993.03
2023-01-10T07:05:36.197Z,98012.13
2023-01-10T07:08:03.453Z,98019.13
2023-01-10T07:10:30.861Z,98010.53
2023-01-10T07:12:58.928Z,98016.69
2023-01-10T07:15:27.184Z,98016.72
2023-01-10T07:17:56.633Z,98016.69
2023-01-10T07:20:24.133Z,98014.88
2023-01-10T07:22:59.391Z,98020.09
2023-01-10T07:25:28.817Z,98024.41
2023-01-10T07:27:55.846Z,98021.78
2023-01-10T07:30:25.536Z,98021.78
2023-01-10T07:32:56.554Z,98017.34
2023-01-10T07:35:25.294Z,98021.69
2023-01-10T07:37:52.229Z,98022.41
2023-01-10T07:40:19.630Z,98025.75
2023-01-10T07:42:46.573Z,98019.63
2023-01-10T07:45:13.901Z,98016.91
2023-01-10T07:47:40.849Z,98016.78
2023-01-10T07:50:08.627Z,98017.56
2023-01-10T07:52:35.808Z,98017.53
2023-01-10T07:55:03.056Z,98019.16
2023-01-10T07:57:29.979Z,98020.78
2023-01-10T07:59:57.252Z,98022.56
2023-01-10T08:02:24.248Z,98025.13
2023-01-10T08:04:51.523Z,98022.44
2023-01-10T08:07:18.915Z,98028.47
2023-01-10T08:09:46.257Z,98029.31
2023-01-10T08:12:13.096Z,98031.03
2023-01-10T08:14:40.338Z,98030.94
2023-01-10T08:17:07.504Z,98036.13
2023-01-10T08:19:34.703Z,98042.28
2023-01-10T08:22:03.173Z,98043.16
2023-01-10T08:24:30.393Z,98051.09
2023-01-10T08:27:00.351Z,98061.66
2023-01-10T08:29:28.429Z,98064.34
2023-01-10T08:31:55.469Z,98072.22
2023-01-10T08:34:22.712Z,98077.47
2023-01-10T08:36:54.134Z,98081.84
2023-01-10T08:39:22.949Z,98099.09
2023-01-10T08:41:49.884Z,98094.78
2023-01-10T08:44:17.595Z,98096.47
2023-01-10T08:46:45.791Z,98091.25
2023-01-10T08:49:13.120Z,98094.72
2023-01-10T08:51:40.074Z,98099.00
2023-01-10T08:54:07.470Z,98095.53
2023-01-10T08:56:36.352Z,98100.81
2023-01-10T08:59:03.437Z,98109.84
2023-01-10T09:01:30.422Z,98107.97
2023-01-10T09:03:57.819Z,98115.75
2023-01-10T09:06:24.766Z,98119.16
2023-01-10T09:08:52.066Z,98112.09
2023-01-10T09:11:19.077Z,98116.44
2023-01-10T09:13:50.610Z,98120.63
2023-01-10T09:16:18.626Z,98129.22
2023-01-10T09:18:46.182Z,98123.84
2023-01-10T09:21:13.132Z,98126.44
2023-01-10T09:23:40.660Z,98121.19
2023-01-10T09:26:07.754Z,98128.19
2023-01-10T09:28:35.003Z,98129.00
2023-01-10T09:31:05.207Z,98129.03
2023-01-10T09:33:45.709Z,98125.53
2023-01-10T09:36:15.721Z,98134.22
2023-01-10T09:38:43.243Z,98137.91
2023-01-10T09:41:55.621Z,98136.03
2023-01-10T09:44:55.306Z,98136.00
2023-01-10T09:47:35.280Z,98135.06
2023-01-10T09:50:06.488Z,98136.72
2023-01-10T09:52:38.336Z,98143.53
2023-01-10T09:55:25.409Z,98143.47
2023-01-10T09:57:55.571Z,98135.38
2023-01-10T10:00:31.659Z,98144.81
2023-01-10T10:02:58.632Z,98151.81
2023-01-10T10:05:29.145Z,98150.84
2023-01-10T10:08:05.138Z,98149.88
2023-01-10T10:10:41.346Z,98131.53
2023-01-10T10:13:23.155Z,98144.38
2023-01-10T10:16:28.071Z,98138.97
2023-01-10T10:19:53.794Z,98142.38
2023-01-10T10:22:39.110Z,98143.16
2023-01-10T10:25:11.809Z,98138.69
2023-01-10T10:28:11.161Z,98136.06
2023-01-10T10:31:15.108Z,98144.72
2023-01-10T10:34:05.773Z,98148.03
2023-01-10T10:36:43.931Z,98154.84
2023-01-10T10:39:21.107Z,98162.56
2023-01-10T10:41:53.306Z,98160.63
2023-01-10T10:44:42.003Z,98158.75
2023-01-10T10:47:20.769Z,98163.78
2023-01-10T10:49:57.433Z,98165.38
2023-01-10T10:52:27.200Z,98168.72
2023-01-10T10:54:55.041Z,98167.88
2023-01-10T10:57:27.612Z,98160.81
2023-01-10T10:59:55.968Z,98157.19
2023-01-10T11:02:31.349Z,98165.84
2023-01-10T11:05:05.346Z,98170.09
2023-01-10T11:07:35.601Z,98176.94
2023-01-10T11:10:10.960Z,98176.78
2023-01-10T11:12:42.068Z,98176.75
2023-01-10T11:15:09.754Z,98187.97
2023-01-10T11:17:41.004Z,98195.72
2023-01-10T11:20:18.919Z,98209.63
2023-01-10T11:22:51.225Z,98230.50
2023-01-10T11:25:21.104Z,98233.09
2023-01-10T11:27:58.167Z,98233.13
2023-01-10T11:30:30.393Z,98229.78
2023-01-10T11:33:02.545Z,98242.06
2023-01-10T11:35:32.766Z,98247.44
2023-01-10T11:38:16.305Z,98260.53
2023-01-10T11:41:22.891Z,98265.47
2023-01-10T11:43:49.756Z,98251.59
2023-01-10T11:46:21.723Z,98260.47
2023-01-10T11:49:07.680Z,98264.09
2023-01-10T11:51:44.407Z,98262.28
2023-01-10T11:54:17.762Z,98260.41
2023-01-10T11:56:56.336Z,98272.53
2023-01-10T11:59:24.448Z,98277.59
2023-01-10T12:01:59.040Z,98284.50
2023-01-10T12:04:31.129Z,98287.09
2023-01-10T12:07:04.941Z,98287.88
2023-01-10T12:09:37.504Z,98287.88
2023-01-10T12:12:06.046Z,98283.63
2023-01-10T12:14:33.075Z,98280.88
2023-01-10T12:17:03.132Z,98286.06
2023-01-10T12:19:30.196Z,98289.47
2023-01-10T12:22:06.292Z,98284.22
2023-01-10T12:24:36.053Z,98293.66
2023-01-10T12:27:06.073Z,98303.38
2023-01-10T12:29:43.549Z,98306.94
2023-01-10T12:32:42.094Z,98324.72
2023-01-10T12:35:45.707Z,98336.16
2023-01-10T12:38:46.409Z,98333.63
2023-01-10T12:41:39.813Z,98320.84
2023-01-10T12:44:16.704Z,98321.88
2023-01-10T12:47:08.339Z,98326.25
2023-01-10T12:49:57.385Z,98335.97
2023-01-10T12:52:45.889Z,98339.44
2023-01-10T12:55:21.425Z,98331.72
2023-01-10T12:57:53.940Z,98329.13
2023-01-10T13:00:34.894Z,98334.31
2023-01-10T13:03:17.277Z,98329.94
2023-01-10T13:05:48.758Z,98328.91
2023-01-10T13:08:19.195Z,98336.91
2023-01-10T13:10:50.027Z,98342.19
2023-01-10T13:13:29.715Z,98338.75
2023-01-10T13:16:24.639Z,98339.72
2023-01-10T13:19:13.411Z,98345.00
2023-01-10T13:21:43.651Z,98352.13
2023-01-10T13:24:21.209Z,98352.13
2023-01-10T13:27:03.306Z,98363.56
2023-01-10T13:29:38.055Z,98362.59
2023-01-10T13:32:21.614Z,98368.72
2023-01-10T13:34:48.812Z,98377.38
2023-01-10T13:37:36.798Z,98380.97
2023-01-10T13:40:05.739Z,98384.22
2023-01-10T13:42:55.138Z,98392.25
2023-01-10T13:45:26.076Z,98396.78
2023-01-10T13:47:57.038Z,98404.47
2023-01-10T13:50:44.181Z,98404.41
2023-01-10T13:53:13.021Z,98400.94
2023-01-10T13:55:39.956Z,98410.50
2023-01-10T13:58:16.289Z,98416.53
2023-01-10T14:01:10.383Z,98420.91
2023-01-10T14:03:50.746Z,98426.22
2023-01-10T14:06:29.063Z,98432.28
2023-01-10T14:09:26.709Z,98442.81
2023-01-10T14:11:59.640Z,98430.53
2023-01-10T14:14:31.321Z,98440.09
2023-01-10T14:17:15.168Z,98448.97
2023-01-10T14:19:45.680Z,98453.28
2023-01-10T14:22:27.485Z,98447.34
2023-01-10T14:24:54.926Z,98452.63
2023-01-10T14:27:22.997Z,98445.75
2023-01-10T14:29:53.066Z,98452.78
2023-01-10T14:32:40.858Z,98452.06
2023-01-10T14:35:15.524Z,98455.59
2023-01-10T14:37:53.315Z,98467.19
2023-01-10T14:40:32.531Z,98457.72
2023-01-10T14:43:04.641Z,98460.41
2023-01-10T14:46:10.410Z,98463.84
2023-01-10T14:48:46.211Z,98471.84
2023-01-10T14:51:18.255Z,98464.84
2023-01-10T14:53:45.246Z,98466.53
2023-01-10T14:56:20.212Z,98467.50
2023-01-10T14:58:47.149Z,98472.03
2023-01-10T15:01:24.770Z,98475.53
2023-01-10T15:03:53.012Z,98473.72
2023-01-10T15:06:20.329Z,98472.88
2023-01-10T15:08:56.906Z,98479.88
2023-01-10T15:11:32.013Z,98480.75
2023-01-10T15:14:08.640Z,98486.91
2023-01-10T15:16:42.131Z,98486.88
2023-01-10T15:19:15.608Z,98484.34
2023-01-10T15:22:04.761Z,98481.72
2023-01-10T15:24:35.750Z,98480.84
2023-01-10T15:27:06.293Z,98487.75
2023-01-10T15:29:34.039Z,98494.78
2023-01-10T15:32:16.739Z,98493.13
2023-01-10T15:34:48.958Z,98496.59
2023-01-10T15:37:22.527Z,98487.88
2023-01-10T15:39:49.816Z,98494.78
2023-01-10T15:42:20.192Z,98498.31
2023-01-10T15:44:52.995Z,98499.19
2023-01-10T15:47:41.689Z,98521.88
2023-01-10T15:50:18.845Z,98515.75
2023-01-10T15:52:58.408Z,98523.66
2023-01-10T15:55:39.556Z,98524.47
2023-01-10T15:58:32.768Z,98530.59
2023-01-10T16:01:00.585Z,98546.22
2023-01-10T16:03:34.409Z,98552.31
2023-01-10T16:06:02.652Z,98553.13
2023-01-10T16:08:35.388Z,98559.38
2023-01-10T16:11:06.999Z,98560.31
2023-01-10T16:13:35.505Z,98566.41
2023-01-10T16:16:05.182Z,98568.16
2023-01-10T16:18:34.042Z,98573.50
2023-01-10T16:21:03.065Z,98580.44
2023-01-10T16:23:35.437Z,98585.66
2023-01-10T16:26:06.111Z,98583.88
2023-01-10T16:28:36.346Z,98589.94
2023-01-10T16:31:06.521Z,98582.16
2023-01-10T16:33:34.346Z,98590.88
2023-01-10T16:36:01.653Z,98589.13
2023-01-10T16:38:29.343Z,98594.41
2023-01-10T16:41:21.322Z,98600.53
2023-01-10T16:43:49.543Z,98607.44
2023-01-10T16:46:16.589Z,98610.91
2023-01-10T16:48:47.611Z,98613.47
2023-01-10T16:51:18.963Z,98612.63
2023-01-10T16:53:47.401Z,98622.09
2023-01-10T16:56:17.343Z,98629.91
2023-01-10T16:58:44.638Z,98633.31
2023-01-10T17:01:17.962Z,98636.78
2023-01-10T17:03:45.858Z,98639.34
2023-01-10T17:06:14.039Z,98649.88
2023-01-10T17:08:42.581Z,98649.88
2023-01-10T17:11:20.134Z,98644.72
2023-01-10T17:13:47.654Z,98648.09
2023-01-10T17:16:18.631Z,98650.69
2023-01-10T17:18:47.414Z,98643.72
2023-01-10T17:21:17.501Z,98644.63
2023-01-10T17:23:44.828Z,98648.09
2023-01-10T17:26:14.618Z,98654.19
2023-01-10T17:28:41.914Z,98662.94
2023-01-10T17:31:09.069Z,98663.78
2023-01-10T17:33:37.108Z,98666.38
2023-01-10T17:36:05.318Z,98675.97
2023-01-10T17:38:33.021Z,98674.38
2023-01-10T17:41:02.225Z,98676.97
2023-01-10T17:43:30.864Z,98681.38
2023-01-10T17:46:01.104Z,98694.59
2023-01-10T17:48:29.534Z,98693.66
2023-01-10T17:50:59.813Z,98694.50
2023-01-10T17:53:27.697Z,98700.59
2023-01-10T17:55:54.889Z,98704.94
2023-01-10T17:58:22.133Z,98711.88
2023-01-10T18:00:49.418Z,98716.28
2023-01-10T18:03:16.905Z,98724.19
2023-01-10T18:05:51.670Z,98722.41
2023-01-10T18:08:19.492Z,98717.19
2023-01-10T18:10:47.272Z,98714.59
2023-01-10T18:13:15.769Z,98717.25
2023-01-10T18:15:50.193Z,98722.63
2023-01-10T18:18:19.238Z,98718.31
2023-01-10T18:20:46.114Z,98721.75
2023-01-10T18:23:25.394Z,98725.22
2023-01-10T18:26:00.072Z,98724.41
2023-01-10T18:28:40.447Z,98717.47
2023-01-10T18:31:12.969Z,98720.19
2023-01-10T18:33:40.633Z,98721.94
2023-01-10T18:36:14.361Z,98738.50
2023-01-10T18:38:42.464Z,98737.69
2023-01-10T18:41:09.356Z,98744.63
2023-01-10T18:43:36.633Z,98751.69
2023-01-10T18:46:11.095Z,98754.31
2023-01-10T18:48:38.602Z,98758.75
2023-01-10T18:51:05.733Z,98766.69
2023-01-10T18:53:33.384Z,98764.97
2023-01-10T18:56:04.498Z,98771.03
2023-01-10T18:58:42.080Z,98763.25
2023-01-10T19:01:17.202Z,98771.13
2023-01-10T19:03:44.936Z,98775.56
2023-01-10T19:06:16.102Z,98780.72
2023-01-10T19:08:44.739Z,98785.13
2023-01-10T19:11:15.276Z,98786.00
2023-01-10T19:13:47.516Z,98794.63
2023-01-10T19:16:20.610Z,98796.47
2023-01-10T19:18:56.392Z,98797.47
2023-01-10T19:21:25.239Z,98793.03
2023-01-10T19:23:57.417Z,98794.81
2023-01-10T19:26:24.987Z,98792.16
2023-01-10T19:28:52.889Z,98799.09
2023-01-10T19:31:22.694Z,98804.38
2023-01-10T19:33:50.874Z,98801.75
2023-01-10T19:36:19.458Z,98805.25
2023-01-10T19:38:47.088Z,98811.41
2023-01-10T19:41:14.612Z,98821.84
2023-01-10T19:43:41.943Z,98821.88
2023-01-10T19:46:11.301Z,98824.50
2023-01-10T19:48:39.600Z,98826.25
2023-01-10T19:51:08.922Z,98833.25
2023-01-10T19:53:37.480Z,98844.56
2023-01-10T19:56:07.502Z,98845.50
2023-01-10T19:58:35.244Z,98848.16
2023-01-10T20:01:10.676Z,98841.31
2023-01-10T20:03:39.177Z,98848.34
2023-01-10T20:06:06.805Z,98849.25
2023-01-10T20:08:34.014Z,98855.41
2023-01-10T20:11:05.805Z,98852.03
2023-01-10T20:13:45.087Z,98853.78
2023-01-10T20:16:13.973Z,98857.25
2023-01-10T20:18:41.543Z,98854.78
2023-01-10T20:21:10.432Z,98861.66
2023-01-10T20:23:38.518Z,98853.94
2023-01-10T20:26:12.717Z,98856.44
2023-01-10T20:28:41.883Z,98858.19
2023-01-10T20:31:12.670Z,98865.13
2023-01-10T20:33:40.029Z,98863.31
2023-01-10T20:36:09.249Z,98865.81
2023-01-10T20:38:37.573Z,98874.50
2023-01-10T20:41:07.522Z,98880.56
2023-01-10T20:43:35.910Z,98882.25
2023-01-10T20:46:08.608Z,98874.41
2023-01-10T20:48:35.914Z,98885.66
2023-01-10T20:51:04.593Z,98880.44
2023-01-10T20:53:32.369Z,98885.63
2023-01-10T20:56:12.889Z,98882.19
2023-01-10T20:58:40.328Z,98889.13
2023-01-10T21:01:08.223Z,98889.13
2023-01-10T21:03:35.950Z,98901.31
2023-01-10T21:06:03.420Z,98903.94
2023-01-10T21:08:30.627Z,98904.81
2023-01-10T21:10:58.347Z,98909.16
2023-01-10T21:13:26.439Z,98916.94
2023-01-10T21:15:56.030Z,98916.94
2023-01-10T21:18:26.914Z,98917.84
2023-01-10T21:20:55.842Z,98924.84
2023-01-10T21:23:25.546Z,98934.47
2023-01-10T21:25:53.244Z,98929.38
2023-01-10T21:28:21.341Z,98940.63
2023-01-10T21:30:48.355Z,98939.75
2023-01-10T21:33:15.710Z,98949.25
2023-01-10T21:35:42.694Z,98951.88
2023-01-10T21:38:09.963Z,98950.13
2023-01-10T21:40:36.903Z,98953.59
2023-01-10T21:43:04.485Z,98949.22
2023-01-10T21:45:32.499Z,98950.09
2023-01-10T21:47:59.792Z,98950.97
2023-01-10T21:50:28.158Z,98944.84
2023-01-10T21:52:55.307Z,98947.47
2023-01-10T21:55:22.323Z,98950.91
2023-01-10T21:57:49.444Z,98950.06
2023-01-10T22:00:16.790Z,98947.41
2023-01-10T22:02:44.134Z,98945.66
2023-01-10T22:05:11.556Z,98940.41
2023-01-10T22:07:38.815Z,98936.03
2023-01-10T22:10:08.075Z,98938.63
2023-01-10T22:12:36.773Z,98946.47
2023-01-10T22:15:04.159Z,98947.38
2023-01-10T22:17:31.356Z,98949.94
2023-01-10T22:19:58.265Z,98954.31
2023-01-10T22:22:25.490Z,98943.88
2023-01-10T22:24:52.366Z,98950.81
2023-01-10T22:27:20.107Z,98956.84
2023-01-10T22:29:47.179Z,98949.88
2023-01-10T22:32:14.576Z,98949.03
2023-01-10T22:34:41.511Z,98954.25
2023-01-10T22:37:09.056Z,98951.69
2023-01-10T22:39:35.998Z,98960.31
2023-01-10T22:42:03.809Z,98954.25
2023-01-10T22:44:30.877Z,98955.06
2023-01-10T22:46:58.019Z,98952.47
2023-01-10T22:49:24.895Z,98952.47
2023-01-10T22:51:52.098Z,98957.63
2023-01-10T22:54:19.048Z,98958.50
2023-01-10T22:56:46.866Z,98952.41
2023-01-10T22:59:14.114Z,98955.81
2023-01-10T23:01:42.102Z,98956.72
2023-01-10T23:04:09.223Z,98964.53
2023-01-10T23:06:36.609Z,98964.53
2023-01-10T23:09:04.103Z,98958.44
2023-01-10T23:11:31.348Z,98968.03
2023-01-10T23:13:58.228Z,98970.63
2023-01-10T23:16:32.796Z,98970.63
2023-01-10T23:19:00.364Z,98974.94
2023-01-10T23:21:29.415Z,98982.84
2023-01-10T23:23:56.848Z,98969.72
2023-01-10T23:26:24.211Z,98974.13
2023-01-10T23:28:51.910Z,98972.38
2023-01-10T23:31:22.080Z,98964.56
2023-01-10T23:33:49.949Z,98968.97
2023-01-10T23:36:17.730Z,98967.28
2023-01-10T23:38:44.983Z,98965.63
2023-01-10T23:41:12.320Z,98967.38
2023-01-10T23:43:39.295Z,98973.47
2023-01-10T23:46:07.154Z,98963.03
2023-01-10T23:48:34.797Z,98966.53
2023-01-10T23:51:02.060Z,98959.56
2023-01-10T23:53:29.142Z,98963.94
2023-01-10T23:55:57.010Z,98958.75
2023-01-10T23:58:24.150Z,98964.88
